Time;durP1;ratioP1;P1;durP2;ratioP2;P2;SDS_P1;SDS_P2;PMS_P1;PMS_P2;Temp;Humidity;BMP_temperature;BMP_pressure;BME280_temperature;BME280_humidity;BME280_pressure;Samples;Min_cycle;Max_cycle;Signal;HPM_P1;HPM_P2
2022/03/05 00:00:32;;;;;;;15.20;10.57;;;;;;;2.11;50.96;99054.13;4154735;28;20236;-35
2022/03/05 00:02:34;;;;;;;17.20;11.43;;;;;;;2.11;51.31;99046.25;4155890;28;20283;-35
2022/03/05 00:04:36;;;;;;;20.50;12.07;;;;;;;2.04;51.49;99046.72;4154881;28;20229;-33
2022/03/05 00:06:38;;;;;;;20.67;13.50;;;;;;;2.00;51.62;99047.94;4154165;28;20261;-35
2022/03/05 00:08:41;;;;;;;21.67;13.33;;;;;;;1.72;52.10;99049.25;4156122;28;20237;-34
2022/03/05 00:10:43;;;;;;;19.40;13.07;;;;;;;1.72;52.38;99051.06;4158310;28;20233;-34
2022/03/05 00:12:46;;;;;;;16.83;11.27;;;;;;;1.55;52.73;99053.19;4157713;28;20267;-34
2022/03/05 00:14:47;;;;;;;18.80;11.63;;;;;;;1.50;52.85;99040.44;4157218;28;20260;-35
2022/03/05 00:16:49;;;;;;;16.67;11.07;;;;;;;1.44;53.22;99037.44;4154993;28;20874;-35
2022/03/05 00:18:51;;;;;;;17.40;11.73;;;;;;;1.48;53.27;99036.28;4159994;28;20425;-35
2022/03/05 00:20:53;;;;;;;20.63;12.10;;;;;;;1.47;53.16;99042.47;4158599;28;20244;-33
2022/03/05 00:22:55;;;;;;;20.00;13.33;;;;;;;1.52;53.31;99033.28;4158371;28;20763;-34
2022/03/05 00:24:56;;;;;;;20.13;13.37;;;;;;;1.32;54.02;99028.75;4156450;28;20726;-35
2022/03/05 00:26:58;;;;;;;19.97;12.57;;;;;;;1.47;53.79;99021.50;4158090;28;20240;-35
2022/03/05 00:29:00;;;;;;;21.23;12.50;;;;;;;1.58;53.45;99007.59;4158979;28;20605;-34
2022/03/05 00:31:02;;;;;;;19.13;13.60;;;;;;;1.47;53.60;99024.13;4150279;28;20355;-34
2022/03/05 00:33:04;;;;;;;21.33;13.13;;;;;;;1.33;53.98;99020.78;4158999;28;20241;-34
2022/03/05 00:35:07;;;;;;;22.07;13.03;;;;;;;1.26;54.18;99022.19;4156670;28;20616;-35
2022/03/05 00:37:10;;;;;;;18.07;12.03;;;;;;;1.50;53.71;99016.03;4157862;28;20230;-35
2022/03/05 00:39:12;;;;;;;18.57;12.13;;;;;;;1.19;54.27;99023.63;4154807;28;20233;-34
2022/03/05 00:41:13;;;;;;;22.97;14.73;;;;;;;1.36;54.03;99030.19;4156850;28;20286;-33
2022/03/05 00:43:15;;;;;;;18.40;12.03;;;;;;;1.60;53.67;99019.59;4157506;28;20255;-34
2022/03/05 00:45:17;;;;;;;16.83;11.10;;;;;;;1.37;54.33;99025.78;4156717;28;20245;-34
2022/03/05 00:47:18;;;;;;;19.30;12.00;;;;;;;1.21;54.67;99021.72;4157245;28;20237;-39
2022/03/05 00:49:20;;;;;;;18.87;12.03;;;;;;;1.54;54.01;99014.81;4154991;28;20334;-35
2022/03/05 00:51:22;;;;;;;20.73;11.57;;;;;;;1.31;54.59;99022.69;4157333;28;20263;-34
2022/03/05 00:53:23;;;;;;;18.03;10.70;;;;;;;1.51;54.05;99029.00;4154626;28;20228;-35
2022/03/05 00:55:25;;;;;;;17.47;10.90;;;;;;;1.70;53.85;99022.34;4157708;28;20306;-34
2022/03/05 00:57:27;;;;;;;16.37;11.07;;;;;;;1.37;54.38;99031.84;4154876;28;20667;-35
2022/03/05 00:59:29;;;;;;;16.87;10.33;;;;;;;1.42;54.57;99023.66;4156405;28;20232;-33
2022/03/05 01:01:30;;;;;;;19.90;11.83;;;;;;;1.48;54.37;99023.19;4158042;28;20656;-35
2022/03/05 01:03:32;;;;;;;16.97;11.00;;;;;;;1.44;54.35;99032.22;4158174;28;20688;-34
2022/03/05 01:05:34;;;;;;;19.87;12.37;;;;;;;1.58;54.08;99024.13;4150098;28;20236;-35
2022/03/05 01:07:36;;;;;;;21.17;11.93;;;;;;;1.43;54.50;99030.56;4157827;28;20260;-35
2022/03/05 01:09:38;;;;;;;17.87;11.47;;;;;;;1.41;54.41;99032.44;4155604;28;20290;-34
2022/03/05 01:11:40;;;;;;;18.27;11.70;;;;;;;1.46;54.65;99030.31;4158964;28;20702;-34
2022/03/05 01:13:43;;;;;;;18.07;11.60;;;;;;;1.66;54.08;99023.53;4144494;28;20229;-35
2022/03/05 01:15:44;;;;;;;17.67;10.90;;;;;;;1.48;54.59;99025.81;4153632;28;20650;-34
2022/03/05 01:17:46;;;;;;;19.67;12.60;;;;;;;1.29;55.21;99027.22;4158434;28;20356;-35
2022/03/05 01:19:48;;;;;;;18.73;10.97;;;;;;;1.26;55.17;99031.84;4157528;28;20233;-34
2022/03/05 01:21:50;;;;;;;17.67;11.67;;;;;;;1.21;55.21;99026.13;4159611;23;20733;-63
2022/03/05 01:23:52;;;;;;;20.23;11.80;;;;;;;1.04;55.64;99036.09;4139527;28;20258;-64
2022/03/05 01:25:53;;;;;;;18.20;11.80;;;;;;;1.22;55.46;99012.91;4139563;28;20308;-64
2022/03/05 01:27:55;;;;;;;20.30;11.97;;;;;;;1.25;55.29;99017.91;4141042;28;20268;-63
2022/03/05 01:29:57;;;;;;;19.83;12.60;;;;;;;1.25;55.69;99017.91;4136590;28;20237;-63
2022/03/05 01:31:59;;;;;;;22.40;13.40;;;;;;;1.11;55.59;99026.00;4141782;28;20260;-63
2022/03/05 01:34:00;;;;;;;22.50;13.33;;;;;;;1.37;55.12;99013.50;4134077;28;20333;-63
2022/03/05 01:36:02;;;;;;;18.87;12.33;;;;;;;1.12;55.58;99019.78;4135647;28;20945;-63
2022/03/05 01:38:04;;;;;;;18.23;11.97;;;;;;;1.14;55.67;99020.53;4142054;28;20234;-63
2022/03/05 01:40:06;;;;;;;19.20;12.03;;;;;;;1.05;55.85;99031.69;4139843;28;20253;-62
2022/03/05 01:42:08;;;;;;;18.37;11.93;;;;;;;0.99;56.22;99026.91;4136470;28;20930;-63
2022/03/05 01:44:10;;;;;;;19.37;13.63;;;;;;;0.48;57.39;99031.47;4141081;28;20236;-63
2022/03/05 01:46:11;;;;;;;18.20;12.20;;;;;;;0.21;58.31;99029.03;4138158;28;20292;-63
2022/03/05 01:48:13;;;;;;;22.13;11.87;;;;;;;-0.04;58.87;99036.03;4142043;28;20237;-63
2022/03/05 01:50:15;;;;;;;18.77;12.27;;;;;;;0.34;58.20;99013.31;4139331;28;20271;-64
2022/03/05 01:52:16;;;;;;;20.50;13.20;;;;;;;0.68;57.42;99011.66;4141340;28;20320;-64
2022/03/05 01:54:18;;;;;;;19.90;12.83;;;;;;;0.55;57.55;99024.00;4138264;28;20261;-63
2022/03/05 01:56:21;;;;;;;18.83;12.07;;;;;;;0.90;56.80;99023.16;4141480;28;20300;-64
2022/03/05 01:58:23;;;;;;;21.63;13.30;;;;;;;0.87;56.76;99019.00;4135849;28;20323;-63
2022/03/05 02:00:25;;;;;;;17.37;11.80;;;;;;;0.99;56.50;99025.13;4156237;28;20252;-63
2022/03/05 02:02:27;;;;;;;19.87;13.47;;;;;;;0.91;56.50;99030.06;4155369;28;20346;-63
2022/03/05 02:04:29;;;;;;;18.50;12.43;;;;;;;0.65;57.18;99035.47;4154523;28;20252;-63
2022/03/05 02:06:31;;;;;;;20.60;13.30;;;;;;;0.93;56.65;99015.91;4155904;28;20336;-63
2022/03/05 02:08:32;;;;;;;21.10;13.47;;;;;;;0.88;56.75;99022.44;4156469;28;20255;-63
2022/03/05 02:10:34;;;;;;;22.93;14.50;;;;;;;0.82;56.90;99017.66;4155553;28;20320;-63
2022/03/05 02:12:37;;;;;;;19.87;13.10;;;;;;;0.63;57.41;99018.19;4154314;28;20712;-63
2022/03/05 02:14:39;;;;;;;20.63;13.30;;;;;;;0.69;57.26;99009.91;4156465;28;20893;-63
2022/03/05 02:16:41;;;;;;;25.27;15.63;;;;;;;0.63;57.78;99007.72;4154161;28;20235;-63
2022/03/05 02:18:51;;;;;;;23.70;15.07;;;;;;;0.81;57.23;99000.31;4155654;28;20245;-64
2022/03/05 02:20:54;;;;;;;24.73;15.63;;;;;;;0.81;57.12;99008.16;4151703;28;20806;-63
2022/03/05 02:22:56;;;;;;;20.37;15.20;;;;;;;0.77;57.24;99008.38;4156910;28;20323;-63
2022/03/05 02:24:59;;;;;;;20.00;14.33;;;;;;;0.61;57.75;99012.25;4155375;28;20260;-63
2022/03/05 02:27:03;;;;;;;19.83;14.63;;;;;;;0.70;57.69;99007.19;4155011;28;20244;-63
2022/03/05 02:29:04;;;;;;;19.20;13.77;;;;;;;1.00;56.87;98990.13;4156234;28;20307;-63
2022/03/05 02:31:07;;;;;;;21.63;14.13;;;;;;;0.78;57.42;99006.59;4153213;28;20324;-63
2022/03/05 02:33:09;;;;;;;22.10;13.77;;;;;;;0.57;57.66;99015.09;4157082;28;20267;-63
2022/03/05 02:35:10;;;;;;;19.47;13.83;;;;;;;0.74;57.43;99010.41;4152305;28;20241;-63
2022/03/05 02:37:15;;;;;;;19.07;12.83;;;;;;;0.43;57.90;99020.50;4153816;28;20256;-63
2022/03/05 02:39:17;;;;;;;19.73;11.87;;;;;;;0.83;57.18;99003.63;4155453;28;20262;-63
2022/03/05 02:41:19;;;;;;;21.10;12.90;;;;;;;0.41;57.56;99027.59;4155483;28;20635;-63
2022/03/05 02:43:21;;;;;;;26.70;14.33;;;;;;;0.40;58.00;99012.88;4151685;28;20267;-64
2022/03/05 02:45:23;;;;;;;20.60;14.33;;;;;;;0.57;57.77;99007.25;4156234;28;20868;-64
2022/03/05 02:47:25;;;;;;;24.13;14.80;;;;;;;0.39;58.66;99012.03;4154934;28;20328;-64
2022/03/05 02:49:26;;;;;;;23.40;15.77;;;;;;;0.50;58.01;99013.88;4150843;28;20547;-63
2022/03/05 02:51:29;;;;;;;24.73;14.17;;;;;;;0.21;58.86;99024.69;4150458;28;20929;-63
2022/03/05 02:53:31;;;;;;;23.00;15.20;;;;;;;0.34;58.66;99008.09;4153497;28;20232;-63
2022/03/05 02:55:34;;;;;;;22.60;14.23;;;;;;;0.33;58.79;99006.41;4149297;28;20989;-63
2022/03/05 02:57:35;;;;;;;20.57;13.27;;;;;;;0.53;58.20;99003.19;4156293;28;20255;-63
2022/03/05 02:59:37;;;;;;;19.47;13.33;;;;;;;0.49;58.44;99006.97;4156350;28;20271;-63
2022/03/05 03:01:38;;;;;;;20.80;12.93;;;;;;;0.54;58.12;99011.88;4154225;28;20328;-63
2022/03/05 03:03:41;;;;;;;20.03;13.90;;;;;;;0.50;58.27;99011.25;4156969;28;20236;-63
2022/03/05 03:05:43;;;;;;;19.30;12.17;;;;;;;0.46;58.40;99011.59;4147819;28;20256;-63
2022/03/05 03:07:44;;;;;;;20.87;12.33;;;;;;;0.30;58.88;99014.50;4156481;28;20316;-63
2022/03/05 03:09:46;;;;;;;18.30;12.00;;;;;;;0.24;59.52;99012.31;4154028;28;20260;-63
2022/03/05 03:11:47;;;;;;;18.07;12.20;;;;;;;0.08;59.51;99026.50;4157447;28;20256;-63
2022/03/05 03:13:49;;;;;;;22.10;13.30;;;;;;;0.07;59.77;99008.31;4156784;28;20236;-63
2022/03/05 03:15:51;;;;;;;22.73;14.17;;;;;;;0.02;59.90;99019.09;4152694;28;20320;-63
2022/03/05 03:17:53;;;;;;;23.40;14.90;;;;;;;-0.05;59.52;99023.91;4157510;28;20232;-64
2022/03/05 03:19:55;;;;;;;22.77;14.50;;;;;;;-0.07;59.77;99023.19;4157276;28;20771;-63
2022/03/05 03:21:56;;;;;;;24.70;15.00;;;;;;;0.25;59.10;99020.06;4157683;28;20724;-63
2022/03/05 03:23:58;;;;;;;21.40;14.03;;;;;;;0.24;59.21;99015.75;4154198;28;20264;-63
2022/03/05 03:25:59;;;;;;;20.37;13.17;;;;;;;0.06;59.56;99019.69;4156504;28;20270;-63
2022/03/05 03:28:01;;;;;;;19.70;13.33;;;;;;;0.20;59.39;99015.16;4157585;28;20264;-63
2022/03/05 03:30:04;;;;;;;20.50;12.70;;;;;;;0.11;59.50;99020.19;4150895;28;20252;-64
2022/03/05 03:32:06;;;;;;;20.63;12.30;;;;;;;0.12;59.59;99022.72;4157351;28;20231;-63
2022/03/05 03:34:08;;;;;;;20.10;13.10;;;;;;;0.19;59.25;99023.97;4146723;28;20283;-64
2022/03/05 03:36:09;;;;;;;20.43;12.93;;;;;;;0.21;59.18;99027.28;4150549;28;20713;-63
2022/03/05 03:38:11;;;;;;;18.47;12.83;;;;;;;0.20;59.51;99016.94;4157551;28;20307;-63
2022/03/05 03:40:14;;;;;;;21.67;13.20;;;;;;;0.09;59.81;99022.09;4151728;28;20315;-63
2022/03/05 03:42:16;;;;;;;18.97;12.73;;;;;;;-0.00;59.98;99031.44;4156984;28;20290;-63
2022/03/05 03:44:18;;;;;;;19.20;12.33;;;;;;;0.10;59.95;99013.31;4153610;28;20243;-64
2022/03/05 03:46:19;;;;;;;16.67;12.43;;;;;;;0.21;59.66;99014.22;4160495;28;20331;-63
2022/03/05 03:48:21;;;;;;;21.07;12.87;;;;;;;0.20;59.70;99017.75;4157386;28;20235;-63
2022/03/05 03:50:23;;;;;;;18.40;12.33;;;;;;;-0.22;60.44;99032.94;4155691;28;20400;-64
2022/03/05 03:52:26;;;;;;;17.70;12.03;;;;;;;0.09;59.94;99030.75;4160824;28;20747;-63
2022/03/05 03:54:27;;;;;;;19.53;12.63;;;;;;;-0.22;60.93;99035.56;4158101;28;20275;-63
2022/03/05 03:56:29;;;;;;;20.67;13.70;;;;;;;0.14;60.09;99022.59;4159972;28;20319;-63
2022/03/05 03:58:31;;;;;;;18.00;12.13;;;;;;;-0.05;60.05;99039.59;4160283;28;20255;-63
2022/03/05 04:00:32;;;;;;;22.03;13.13;;;;;;;-0.12;60.47;99040.16;4160856;28;20316;-63
2022/03/05 04:02:34;;;;;;;16.97;11.63;;;;;;;-0.06;60.20;99035.31;4159805;28;20434;-63
2022/03/05 04:04:36;;;;;;;19.60;12.77;;;;;;;0.13;59.96;99028.78;4155350;28;20880;-63
2022/03/05 04:08:58;;;;;;;20.57;12.73;;;;;;;0.27;59.45;99033.03;4155660;28;20243;-63
2022/03/05 04:11:01;;;;;;;20.83;12.43;;;;;;;0.45;59.09;99023.84;4152575;28;20290;-63
2022/03/05 04:13:02;;;;;;;21.77;13.67;;;;;;;0.29;59.21;99036.34;4160231;28;20259;-63
2022/03/05 04:15:05;;;;;;;20.47;12.80;;;;;;;0.15;59.76;99051.25;4159857;28;22552;-64
2022/03/05 04:17:07;;;;;;;21.17;12.90;;;;;;;0.37;59.10;99039.25;4159856;28;20830;-63
2022/03/05 04:19:08;;;;;;;22.53;12.87;;;;;;;0.16;59.63;99063.38;4146984;28;20271;-63
2022/03/05 04:21:10;;;;;;;20.60;13.80;;;;;;;0.15;59.87;99046.03;4159444;28;20326;-64
2022/03/05 04:23:12;;;;;;;20.23;12.60;;;;;;;0.02;60.29;99053.88;4160046;28;20721;-64
2022/03/05 04:25:13;;;;;;;21.67;13.33;;;;;;;0.21;59.55;99050.81;4160228;28;20668;-64
2022/03/05 04:27:15;;;;;;;19.77;12.07;;;;;;;0.10;60.21;99053.34;4159209;28;20864;-63
2022/03/05 04:29:17;;;;;;;19.00;12.70;;;;;;;0.10;60.11;99055.16;4154678;28;20324;-63
2022/03/05 04:31:18;;;;;;;21.07;12.43;;;;;;;0.11;60.05;99049.81;4155312;28;20266;-63
2022/03/05 04:33:20;;;;;;;22.17;13.17;;;;;;;0.01;60.20;99054.03;4158966;28;20244;-64
2022/03/05 04:35:22;;;;;;;23.53;13.47;;;;;;;-0.10;60.02;99067.00;4153533;28;20328;-64
2022/03/05 04:37:23;;;;;;;22.03;12.60;;;;;;;0.31;59.49;99045.78;4159963;28;20228;-64
2022/03/05 04:39:25;;;;;;;21.67;13.33;;;;;;;0.38;59.25;99051.41;4158265;28;20258;-64
2022/03/05 04:41:27;;;;;;;19.87;12.73;;;;;;;0.51;58.85;99057.38;4159920;28;20666;-64
2022/03/05 04:43:29;;;;;;;19.63;13.23;;;;;;;0.46;58.79;99059.50;4154378;28;20252;-64
2022/03/05 04:45:30;;;;;;;22.80;13.33;;;;;;;0.75;57.99;99062.63;4161002;28;20319;-64
2022/03/05 04:47:32;;;;;;;18.20;12.10;;;;;;;0.32;59.02;99081.41;4155828;28;20320;-64
2022/03/05 04:49:33;;;;;;;22.47;12.67;;;;;;;0.45;59.00;99063.06;4155373;28;20795;-63
2022/03/05 04:51:36;;;;;;;20.27;12.97;;;;;;;0.28;59.29;99072.13;4159824;28;20266;-63
2022/03/05 04:53:37;;;;;;;20.97;13.60;;;;;;;0.20;59.52;99077.06;4157483;28;20332;-64
2022/03/05 04:55:39;;;;;;;19.87;12.00;;;;;;;0.09;59.36;99083.03;4150937;28;20307;-64
2022/03/05 04:57:40;;;;;;;20.03;12.83;;;;;;;0.12;59.96;99071.56;4159705;28;20228;-64
2022/03/05 04:59:42;;;;;;;22.37;13.80;;;;;;;0.14;59.53;99075.72;4155296;28;20327;-63
2022/03/05 05:01:44;;;;;;;18.97;11.60;;;;;;;-0.03;60.29;99079.50;4152815;28;20312;-65
2022/03/05 05:03:46;;;;;;;21.83;13.13;;;;;;;-0.16;60.62;99076.13;4159589;28;20231;-64
2022/03/05 05:05:48;;;;;;;19.60;13.27;;;;;;;-0.26;60.86;99083.75;4152507;28;20270;-64
2022/03/05 05:07:50;;;;;;;20.93;13.20;;;;;;;-0.18;60.91;99067.53;4157351;28;20251;-63
2022/03/05 05:09:51;;;;;;;18.93;12.37;;;;;;;-0.10;60.50;99075.66;4159802;28;20255;-63
2022/03/05 05:11:53;;;;;;;22.43;13.10;;;;;;;-0.18;60.73;99088.44;4157334;28;20267;-63
2022/03/05 05:13:55;;;;;;;19.53;13.67;;;;;;;-0.08;60.53;99071.16;4159485;28;20891;-64
2022/03/05 05:15:56;;;;;;;19.27;12.50;;;;;;;-0.46;61.08;99095.56;4159315;28;20289;-64
2022/03/05 05:18:00;;;;;;;19.87;12.83;;;;;;;-0.49;61.24;99098.38;4150336;28;20233;-64
2022/03/05 05:20:04;;;;;;;18.20;12.33;;;;;;;-0.48;61.79;99086.16;4158382;28;20240;-63
2022/03/05 05:22:06;;;;;;;19.77;12.13;;;;;;;-0.09;60.81;99073.88;4159224;28;20327;-59
2022/03/05 05:24:08;;;;;;;19.77;12.87;;;;;;;-0.29;61.07;99094.41;4158986;28;20232;-63
2022/03/05 05:26:10;;;;;;;19.67;12.23;;;;;;;-0.50;61.68;99095.88;4151157;28;20511;-63
2022/03/05 05:28:11;;;;;;;20.23;12.93;;;;;;;-0.15;61.05;99083.81;4159467;28;20319;-64
2022/03/05 05:30:13;;;;;;;21.03;13.27;;;;;;;-0.20;60.72;99088.53;4158228;28;20252;-63
2022/03/05 05:32:15;;;;;;;20.97;13.13;;;;;;;-0.44;61.32;99100.69;4153823;28;20952;-63
2022/03/05 05:34:17;;;;;;;22.13;13.63;;;;;;;-0.41;61.68;99090.84;4158615;28;20268;-64
2022/03/05 05:36:19;;;;;;;20.80;13.13;;;;;;;-0.18;60.97;99076.22;4152712;28;20331;-64
2022/03/05 05:38:20;;;;;;;20.10;13.37;;;;;;;-0.47;62.03;99090.44;4158464;28;20233;-63
2022/03/05 05:40:22;;;;;;;20.77;14.07;;;;;;;-0.27;61.64;99082.06;4157895;28;20260;-63
2022/03/05 05:42:24;;;;;;;22.43;13.53;;;;;;;-0.41;61.79;99092.66;4158432;28;20235;-63
2022/03/05 05:44:25;;;;;;;22.57;13.70;;;;;;;-0.53;62.04;99097.75;4158059;28;20255;-64
2022/03/05 05:46:27;;;;;;;22.20;13.20;;;;;;;-0.48;62.03;99100.06;4153279;28;20239;-64
2022/03/05 05:48:29;;;;;;;18.60;13.20;;;;;;;-0.32;61.66;99096.41;4156226;28;20257;-63
2022/03/05 05:50:31;;;;;;;20.03;12.97;;;;;;;-0.63;62.44;99101.94;4157287;28;20235;-63
2022/03/05 05:52:33;;;;;;;20.73;12.90;;;;;;;-0.82;62.35;99122.34;4157181;28;20272;-64
2022/03/05 05:54:35;;;;;;;22.30;13.63;;;;;;;-0.37;61.76;99099.31;4158601;28;20240;-63
2022/03/05 05:56:37;;;;;;;21.57;12.93;;;;;;;-0.48;62.07;99104.44;4153088;28;20769;-66
2022/03/05 05:58:39;;;;;;;21.20;13.30;;;;;;;-0.81;62.56;99121.44;4158820;28;20255;-64
2022/03/05 06:00:41;;;;;;;22.07;14.63;;;;;;;-0.48;61.78;99109.66;4153230;28;20256;-63
2022/03/05 06:02:43;;;;;;;23.20;14.67;;;;;;;-0.36;61.76;99101.00;4156593;28;20274;-63
2022/03/05 06:04:45;;;;;;;22.80;14.13;;;;;;;-0.47;61.97;99116.56;4153706;28;20235;-63
2022/03/05 06:06:47;;;;;;;23.70;14.43;;;;;;;-0.50;62.28;99112.38;4150622;28;20247;-63
2022/03/05 06:08:49;;;;;;;22.90;14.50;;;;;;;-0.44;61.89;99119.78;4157876;28;20863;-64
2022/03/05 06:10:52;;;;;;;23.13;14.40;;;;;;;-0.69;62.58;99132.84;4152284;28;20350;-63
2022/03/05 06:12:54;;;;;;;24.87;14.43;;;;;;;-0.53;62.32;99121.25;4152037;28;20738;-63
2022/03/05 06:14:56;;;;;;;28.57;14.50;;;;;;;-0.63;62.34;99127.19;4156126;28;20278;-63
2022/03/05 06:16:57;;;;;;;23.03;15.03;;;;;;;-0.67;62.71;99123.13;4157809;28;20768;-63
2022/03/05 06:18:59;;;;;;;21.60;13.67;;;;;;;-0.61;62.21;99128.78;4155571;28;20239;-64
2022/03/05 06:21:01;;;;;;;22.80;13.93;;;;;;;-0.41;61.96;99109.16;4153945;28;20267;-63
2022/03/05 06:23:03;;;;;;;25.63;13.93;;;;;;;-0.57;62.55;99119.78;4156490;28;20263;-63
2022/03/05 06:25:06;;;;;;;25.10;15.07;;;;;;;-0.79;62.73;99141.25;4151179;28;20323;-63
2022/03/05 06:27:07;;;;;;;25.97;15.43;;;;;;;-0.68;62.48;99131.88;4150464;28;20266;-63
2022/03/05 06:29:09;;;;;;;23.87;15.83;;;;;;;-0.91;63.30;99140.28;4152850;28;20323;-63
2022/03/05 06:31:11;;;;;;;27.97;16.00;;;;;;;-0.58;62.82;99118.13;4158278;28;20268;-63
2022/03/05 06:33:12;;;;;;;28.73;16.73;;;;;;;-0.65;62.62;99121.22;4155935;28;20239;-63
2022/03/05 06:35:14;;;;;;;24.63;15.67;;;;;;;-0.55;62.61;99123.16;4156460;28;20322;-63
2022/03/05 06:37:16;;;;;;;22.93;15.07;;;;;;;-0.87;63.46;99140.09;4160088;28;20355;-63
2022/03/05 06:39:17;;;;;;;22.37;14.77;;;;;;;-0.49;62.59;99123.66;4164227;28;20471;-62
2022/03/05 06:41:19;;;;;;;27.77;16.07;;;;;;;-0.63;62.68;99130.66;4161878;28;20256;-63
2022/03/05 06:43:21;;;;;;;21.90;14.83;;;;;;;-0.38;62.21;99114.16;4162402;28;20235;-62
2022/03/05 06:45:22;;;;;;;27.73;16.03;;;;;;;-0.93;62.85;99152.63;4163365;28;20261;-63
2022/03/05 06:47:24;;;;;;;22.10;14.30;;;;;;;-0.77;63.28;99138.56;4161533;28;20283;-63
2022/03/05 06:49:26;;;;;;;26.20;15.30;;;;;;;-0.49;62.82;99132.34;4160734;28;20745;-63
2022/03/05 06:51:27;;;;;;;24.83;15.03;;;;;;;-0.61;62.99;99139.22;4159807;28;20743;-63
2022/03/05 06:53:29;;;;;;;25.23;13.90;;;;;;;-0.86;63.83;99155.66;4162574;28;20235;-63
2022/03/05 06:55:31;;;;;;;22.63;14.40;;;;;;;-0.61;63.13;99149.66;4163349;28;20263;-63
2022/03/05 06:57:34;;;;;;;25.97;15.23;;;;;;;-0.42;62.70;99148.44;4162914;28;20290;-63
2022/03/05 06:59:35;;;;;;;21.70;15.20;;;;;;;-0.46;62.57;99163.47;4162928;28;20771;-63
2022/03/05 07:01:37;;;;;;;25.13;14.07;;;;;;;-0.58;63.56;99154.69;4162805;28;20228;-63
2022/03/05 07:03:39;;;;;;;20.53;13.73;;;;;;;-0.62;63.49;99162.81;4163122;28;20233;-63
2022/03/05 07:05:41;;;;;;;19.93;13.57;;;;;;;-0.26;62.68;99145.59;4161359;28;20342;-63
2022/03/05 07:07:43;;;;;;;20.97;13.23;;;;;;;-0.11;62.27;99141.97;4159631;28;20709;-63
2022/03/05 07:09:44;;;;;;;21.50;13.90;;;;;;;-0.31;62.56;99169.44;4159627;28;20251;-63
2022/03/05 07:11:46;;;;;;;22.17;14.70;;;;;;;-0.60;63.31;99167.00;4164682;28;20648;-63
2022/03/05 07:13:48;;;;;;;20.80;13.87;;;;;;;-0.00;62.03;99154.28;4157948;28;20622;-63
2022/03/05 07:15:49;;;;;;;19.97;13.57;;;;;;;-0.23;62.43;99169.78;4161243;28;20740;-63
2022/03/05 07:17:53;;;;;;;22.50;13.30;;;;;;;-0.42;62.91;99175.38;4157943;28;20319;-63
2022/03/05 07:19:55;;;;;;;19.30;12.93;;;;;;;-0.36;62.36;99179.38;4162383;28;20271;-63
2022/03/05 07:21:57;;;;;;;21.13;13.23;;;;;;;-0.26;62.80;99166.50;4161252;28;20240;-63
2022/03/05 07:23:58;;;;;;;22.03;13.40;;;;;;;-0.25;62.91;99169.00;4164596;28;20227;-63
2022/03/05 07:26:00;;;;;;;21.67;13.43;;;;;;;-0.04;62.18;99166.72;4163212;28;20704;-63
2022/03/05 07:28:03;;;;;;;22.80;13.07;;;;;;;0.03;62.41;99161.91;4161143;28;20706;-63
2022/03/05 07:30:06;;;;;;;20.80;13.67;;;;;;;-0.24;63.02;99175.91;4165505;28;20764;-63
2022/03/05 07:32:08;;;;;;;22.97;13.83;;;;;;;-0.12;62.74;99173.44;4162554;28;20316;-62
2022/03/05 07:34:09;;;;;;;20.27;13.27;;;;;;;0.19;61.59;99173.00;4166164;28;20323;-63
2022/03/05 07:36:12;;;;;;;18.23;13.30;;;;;;;0.43;61.43;99160.91;4164517;28;20267;-63
2022/03/05 07:38:13;;;;;;;18.33;12.50;;;;;;;0.52;60.63;99170.72;4164786;28;20244;-62
2022/03/05 07:40:15;;;;;;;17.83;12.93;;;;;;;0.64;60.14;99179.47;4156247;28;20237;-62
2022/03/05 07:42:17;;;;;;;21.50;13.80;;;;;;;0.42;61.13;99170.53;4154763;28;20260;-62
2022/03/05 07:44:18;;;;;;;16.27;11.83;;;;;;;0.84;60.19;99172.81;4159862;28;20228;-63
2022/03/05 07:46:20;;;;;;;19.43;13.10;;;;;;;0.64;60.47;99182.94;4158419;28;20268;-62
2022/03/05 07:48:22;;;;;;;17.43;12.97;;;;;;;0.48;60.92;99196.28;4155730;28;20297;-62
2022/03/05 07:50:24;;;;;;;17.43;12.67;;;;;;;0.70;60.79;99181.63;4159456;28;20720;-63
2022/03/05 07:52:26;;;;;;;20.57;12.97;;;;;;;0.44;61.23;99201.81;4161804;28;20252;-63
2022/03/05 07:54:28;;;;;;;18.77;12.87;;;;;;;0.80;60.61;99179.22;4165382;28;20259;-63
2022/03/05 07:56:30;;;;;;;17.07;12.53;;;;;;;0.84;60.17;99185.91;4168321;28;20240;-63
2022/03/05 07:58:32;;;;;;;18.90;12.43;;;;;;;1.04;59.49;99193.19;4168453;28;20732;-61
2022/03/05 08:00:34;;;;;;;18.17;12.33;;;;;;;0.86;59.39;99203.16;4164587;28;20319;-62
2022/03/05 08:02:35;;;;;;;17.10;12.20;;;;;;;1.03;58.54;99222.09;4166618;28;20334;-62
2022/03/05 08:04:37;;;;;;;16.07;11.20;;;;;;;1.21;58.89;99193.75;4157520;28;20314;-63
2022/03/05 08:06:59;;;;;;;16.93;12.60;;;;;;;1.40;57.58;99201.06;4161124;28;20232;-63
2022/03/05 08:09:06;;;;;;;17.53;11.97;;;;;;;1.73;57.03;99195.09;4165948;28;20286;-63
2022/03/05 08:11:07;;;;;;;16.37;11.83;;;;;;;1.70;57.26;99200.56;4160269;28;20323;-62
2022/03/05 08:13:09;;;;;;;16.87;11.93;;;;;;;1.94;55.97;99218.84;4163179;28;20229;-63
2022/03/05 08:15:11;;;;;;;15.17;11.57;;;;;;;1.87;55.86;99221.09;4163998;28;20256;-63
2022/03/05 08:17:12;;;;;;;15.53;11.20;;;;;;;2.14;55.77;99204.22;4161830;28;20268;-62
2022/03/05 08:19:14;;;;;;;15.83;11.87;;;;;;;1.65;56.80;99221.88;4161734;28;20268;-63
2022/03/05 08:21:16;;;;;;;16.60;12.23;;;;;;;1.36;57.70;99238.91;4165718;28;20279;-63
2022/03/05 08:23:17;;;;;;;18.93;12.03;;;;;;;1.73;56.84;99228.31;4164020;28;20315;-63
2022/03/05 08:25:19;;;;;;;16.73;11.97;;;;;;;2.50;55.67;99209.34;4167242;28;20261;-63
2022/03/05 08:27:21;;;;;;;19.07;11.30;;;;;;;2.33;54.13;99221.16;4164823;28;20329;-63
2022/03/05 08:29:23;;;;;;;17.93;11.97;;;;;;;2.26;54.98;99208.50;4161828;28;20333;-63
2022/03/05 08:31:25;;;;;;;15.60;11.17;;;;;;;2.23;54.05;99221.03;4165826;28;20258;-63
2022/03/05 08:33:27;;;;;;;17.10;11.37;;;;;;;1.89;55.44;99219.19;4162880;28;20287;-63
2022/03/05 08:35:28;;;;;;;15.50;11.20;;;;;;;2.18;54.23;99218.75;4157324;28;20280;-63
2022/03/05 08:37:36;;;;;;;17.23;11.10;;;;;;;2.15;54.95;99218.16;4159580;28;20617;-63
2022/03/05 08:39:37;;;;;;;18.97;11.40;;;;;;;2.33;53.82;99213.28;4161681;28;20716;-63
2022/03/05 08:41:40;;;;;;;18.80;12.13;;;;;;;2.49;53.28;99245.25;4163086;28;20234;-63
2022/03/05 08:43:42;;;;;;;16.43;9.73;;;;;;;2.60;53.09;99234.72;4164698;28;20328;-63
2022/03/05 08:45:44;;;;;;;16.20;10.87;;;;;;;2.78;53.38;99211.44;4161153;28;20225;-63
2022/03/05 08:47:46;;;;;;;16.70;11.50;;;;;;;2.30;53.49;99243.19;4162353;28;20766;-63
2022/03/05 08:49:47;;;;;;;16.27;11.33;;;;;;;2.52;54.55;99210.91;4158639;28;20258;-63
2022/03/05 08:51:49;;;;;;;15.50;10.67;;;;;;;3.29;51.93;99219.69;4157649;28;20346;-63
2022/03/05 08:53:51;;;;;;;17.67;11.70;;;;;;;3.30;51.19;99202.97;4156989;28;20263;-63
2022/03/05 08:55:52;;;;;;;15.03;11.67;;;;;;;3.09;51.71;99223.91;4150149;28;20267;-63
2022/03/05 08:57:54;;;;;;;16.33;11.80;;;;;;;2.73;52.96;99225.91;4158642;28;20665;-63
2022/03/05 08:59:56;;;;;;;17.87;12.03;;;;;;;3.22;52.00;99221.16;4154052;28;20269;-63
2022/03/05 09:01:57;;;;;;;18.13;12.43;;;;;;;3.17;52.09;99232.03;4163649;28;20306;-65
2022/03/05 09:03:59;;;;;;;20.30;12.53;;;;;;;3.59;51.36;99218.16;4161969;28;20329;-63
2022/03/05 09:06:01;;;;;;;16.63;12.37;;;;;;;3.33;51.40;99244.72;4161923;28;20256;-63
2022/03/05 09:08:04;;;;;;;17.33;11.87;;;;;;;3.44;51.46;99223.72;4164773;28;20233;-64
2022/03/05 09:10:06;;;;;;;16.07;11.73;;;;;;;3.12;50.84;99247.31;4159469;28;20322;-64
2022/03/05 09:12:08;;;;;;;19.60;11.80;;;;;;;3.11;51.14;99232.50;4161108;28;20277;-64
2022/03/05 09:14:10;;;;;;;15.43;11.90;;;;;;;3.45;51.47;99212.25;4155596;28;20254;-65
2022/03/05 09:16:11;;;;;;;18.13;12.23;;;;;;;3.64;51.26;99229.94;4162001;28;20289;-63
2022/03/05 09:18:13;;;;;;;17.00;12.30;;;;;;;4.01;50.26;99221.63;4159217;28;20260;-64
2022/03/05 09:20:15;;;;;;;15.60;11.77;;;;;;;3.90;50.12;99222.53;4161613;28;20257;-65
2022/03/05 09:22:17;;;;;;;16.70;11.00;;;;;;;4.05;50.22;99227.44;4157541;28;20694;-63
2022/03/05 09:24:19;;;;;;;22.03;14.33;;;;;;;3.97;49.83;99245.66;4152488;28;20239;-64
2022/03/05 09:26:21;;;;;;;16.57;11.57;;;;;;;3.46;50.94;99253.31;4158119;28;20251;-63